sensor_id;sensor_type;location;lat;lon;timestamp;P1;durP1;ratioP1;P2;durP2;ratioP2
8895;SDS011;4484;48.928;10.066;2023-06-26T00:00:07;4.40;;;3.63;;
8895;SDS011;4484;48.928;10.066;2023-06-26T00:02:34;4.80;;;3.77;;
8895;SDS011;4484;48.928;10.066;2023-06-26T00:05:02;3.60;;;3.10;;
8895;SDS011;4484;48.928;10.066;2023-06-26T00:07:29;4.17;;;3.77;;
8895;SDS011;4484;48.928;10.066;2023-06-26T00:09:57;3.80;;;3.10;;
8895;SDS011;4484;48.928;10.066;2023-06-26T00:12:25;4.17;;;3.50;;
8895;SDS011;4484;48.928;10.066;2023-06-26T00:14:52;4.23;;;3.00;;
8895;SDS011;4484;48.928;10.066;2023-06-26T00:17:20;3.50;;;3.20;;
8895;SDS011;4484;48.928;10.066;2023-06-26T00:19:48;4.13;;;3.47;;
8895;SDS011;4484;48.928;10.066;2023-06-26T00:22:15;3.70;;;2.97;;
8895;SDS011;4484;48.928;10.066;2023-06-26T00:24:42;3.47;;;3.00;;
8895;SDS011;4484;48.928;10.066;2023-06-26T00:27:11;3.87;;;3.10;;
8895;SDS011;4484;48.928;10.066;2023-06-26T00:29:38;3.63;;;3.20;;
8895;SDS011;4484;48.928;10.066;2023-06-26T00:32:06;4.00;;;3.37;;
8895;SDS011;4484;48.928;10.066;2023-06-26T00:34:33;3.47;;;3.00;;
8895;SDS011;4484;48.928;10.066;2023-06-26T00:37:00;4.00;;;3.20;;
8895;SDS011;4484;48.928;10.066;2023-06-26T00:39:27;4.33;;;3.40;;
8895;SDS011;4484;48.928;10.066;2023-06-26T00:41:54;4.03;;;3.33;;
8895;SDS011;4484;48.928;10.066;2023-06-26T00:44:21;4.57;;;3.70;;
8895;SDS011;4484;48.928;10.066;2023-06-26T00:46:48;4.90;;;3.97;;
8895;SDS011;4484;48.928;10.066;2023-06-26T00:49:15;4.93;;;3.50;;
8895;SDS011;4484;48.928;10.066;2023-06-26T00:51:43;4.33;;;3.40;;
8895;SDS011;4484;48.928;10.066;2023-06-26T00:54:10;3.83;;;3.10;;
8895;SDS011;4484;48.928;10.066;2023-06-26T00:56:37;4.23;;;3.50;;
8895;SDS011;4484;48.928;10.066;2023-06-26T00:59:06;5.07;;;3.80;;
8895;SDS011;4484;48.928;10.066;2023-06-26T01:01:33;5.27;;;3.60;;
8895;SDS011;4484;48.928;10.066;2023-06-26T01:03:59;3.40;;;3.10;;
8895;SDS011;4484;48.928;10.066;2023-06-26T01:06:27;3.97;;;3.10;;
8895;SDS011;4484;48.928;10.066;2023-06-26T01:08:58;3.47;;;3.00;;
8895;SDS011;4484;48.928;10.066;2023-06-26T01:11:26;4.30;;;3.50;;
8895;SDS011;4484;48.928;10.066;2023-06-26T01:13:53;3.27;;;2.97;;
8895;SDS011;4484;48.928;10.066;2023-06-26T01:16:23;4.00;;;3.30;;
8895;SDS011;4484;48.928;10.066;2023-06-26T01:18:50;4.00;;;3.00;;
8895;SDS011;4484;48.928;10.066;2023-06-26T01:21:18;4.57;;;3.10;;
8895;SDS011;4484;48.928;10.066;2023-06-26T01:23:55;3.77;;;3.13;;
8895;SDS011;4484;48.928;10.066;2023-06-26T01:26:48;4.43;;;3.20;;
8895;SDS011;4484;48.928;10.066;2023-06-26T01:29:17;3.20;;;2.90;;
8895;SDS011;4484;48.928;10.066;2023-06-26T01:31:45;3.73;;;3.13;;
8895;SDS011;4484;48.928;10.066;2023-06-26T01:34:16;4.33;;;3.10;;
8895;SDS011;4484;48.928;10.066;2023-06-26T01:36:44;3.40;;;2.80;;
8895;SDS011;4484;48.928;10.066;2023-06-26T01:39:15;3.90;;;3.27;;
8895;SDS011;4484;48.928;10.066;2023-06-26T01:41:45;3.60;;;3.00;;
8895;SDS011;4484;48.928;10.066;2023-06-26T01:44:17;3.33;;;2.77;;
8895;SDS011;4484;48.928;10.066;2023-06-26T01:46:54;3.40;;;3.10;;
8895;SDS011;4484;48.928;10.066;2023-06-26T01:52:03;4.13;;;3.50;;
8895;SDS011;4484;48.928;10.066;2023-06-26T01:55:03;4.20;;;3.30;;
8895;SDS011;4484;48.928;10.066;2023-06-26T01:57:28;3.93;;;3.40;;
8895;SDS011;4484;48.928;10.066;2023-06-26T01:59:58;3.33;;;2.73;;
8895;SDS011;4484;48.928;10.066;2023-06-26T02:02:27;4.33;;;3.37;;
8895;SDS011;4484;48.928;10.066;2023-06-26T02:04:55;4.33;;;3.93;;
8895;SDS011;4484;48.928;10.066;2023-06-26T02:07:22;4.83;;;3.50;;
8895;SDS011;4484;48.928;10.066;2023-06-26T02:09:49;3.70;;;3.23;;
8895;SDS011;4484;48.928;10.066;2023-06-26T02:12:16;4.57;;;3.53;;
8895;SDS011;4484;48.928;10.066;2023-06-26T02:14:43;4.23;;;3.80;;
8895;SDS011;4484;48.928;10.066;2023-06-26T02:17:10;4.63;;;3.63;;
8895;SDS011;4484;48.928;10.066;2023-06-26T02:19:37;4.83;;;3.17;;
8895;SDS011;4484;48.928;10.066;2023-06-26T02:22:14;3.27;;;2.80;;
8895;SDS011;4484;48.928;10.066;2023-06-26T02:24:42;4.30;;;3.67;;
8895;SDS011;4484;48.928;10.066;2023-06-26T02:27:09;4.53;;;3.47;;
8895;SDS011;4484;48.928;10.066;2023-06-26T02:29:37;3.67;;;2.90;;
8895;SDS011;4484;48.928;10.066;2023-06-26T02:32:07;3.20;;;2.83;;
8895;SDS011;4484;48.928;10.066;2023-06-26T02:34:35;3.53;;;2.97;;
8895;SDS011;4484;48.928;10.066;2023-06-26T02:37:02;4.17;;;3.17;;
8895;SDS011;4484;48.928;10.066;2023-06-26T02:39:29;4.43;;;3.30;;
8895;SDS011;4484;48.928;10.066;2023-06-26T02:41:56;3.67;;;3.20;;
8895;SDS011;4484;48.928;10.066;2023-06-26T02:44:24;3.93;;;3.10;;
8895;SDS011;4484;48.928;10.066;2023-06-26T02:46:51;4.00;;;2.80;;
8895;SDS011;4484;48.928;10.066;2023-06-26T02:49:18;3.73;;;3.20;;
8895;SDS011;4484;48.928;10.066;2023-06-26T02:51:48;4.07;;;3.10;;
8895;SDS011;4484;48.928;10.066;2023-06-26T02:54:22;4.90;;;3.53;;
8895;SDS011;4484;48.928;10.066;2023-06-26T02:56:53;4.57;;;3.67;;
8895;SDS011;4484;48.928;10.066;2023-06-26T02:59:25;4.33;;;3.70;;
8895;SDS011;4484;48.928;10.066;2023-06-26T03:01:53;4.13;;;3.47;;
8895;SDS011;4484;48.928;10.066;2023-06-26T03:04:26;5.47;;;3.90;;
8895;SDS011;4484;48.928;10.066;2023-06-26T03:06:54;4.43;;;3.57;;
8895;SDS011;4484;48.928;10.066;2023-06-26T03:09:21;4.70;;;3.63;;
8895;SDS011;4484;48.928;10.066;2023-06-26T03:11:48;4.23;;;3.63;;
8895;SDS011;4484;48.928;10.066;2023-06-26T03:14:15;4.97;;;3.60;;
8895;SDS011;4484;48.928;10.066;2023-06-26T03:16:42;3.97;;;3.40;;
8895;SDS011;4484;48.928;10.066;2023-06-26T03:19:10;3.53;;;3.20;;
8895;SDS011;4484;48.928;10.066;2023-06-26T03:21:57;4.07;;;3.27;;
8895;SDS011;4484;48.928;10.066;2023-06-26T03:24:24;3.80;;;3.40;;
8895;SDS011;4484;48.928;10.066;2023-06-26T03:26:51;4.47;;;3.37;;
8895;SDS011;4484;48.928;10.066;2023-06-26T03:29:18;4.70;;;3.47;;
8895;SDS011;4484;48.928;10.066;2023-06-26T03:31:45;4.13;;;3.27;;
8895;SDS011;4484;48.928;10.066;2023-06-26T03:34:12;3.90;;;3.40;;
8895;SDS011;4484;48.928;10.066;2023-06-26T03:36:39;3.60;;;3.17;;
8895;SDS011;4484;48.928;10.066;2023-06-26T03:39:06;3.50;;;3.20;;
8895;SDS011;4484;48.928;10.066;2023-06-26T03:41:33;3.70;;;3.10;;
8895;SDS011;4484;48.928;10.066;2023-06-26T03:44:00;3.27;;;2.90;;
8895;SDS011;4484;48.928;10.066;2023-06-26T03:46:34;4.07;;;3.20;;
8895;SDS011;4484;48.928;10.066;2023-06-26T03:49:01;3.87;;;3.20;;
8895;SDS011;4484;48.928;10.066;2023-06-26T03:51:28;3.30;;;2.93;;
8895;SDS011;4484;48.928;10.066;2023-06-26T03:53:55;3.97;;;3.30;;
8895;SDS011;4484;48.928;10.066;2023-06-26T03:56:22;3.87;;;3.40;;
8895;SDS011;4484;48.928;10.066;2023-06-26T03:58:49;3.67;;;3.07;;
8895;SDS011;4484;48.928;10.066;2023-06-26T04:01:16;3.87;;;3.27;;
8895;SDS011;4484;48.928;10.066;2023-06-26T04:03:43;4.97;;;3.50;;
8895;SDS011;4484;48.928;10.066;2023-06-26T04:06:11;4.03;;;3.37;;
8895;SDS011;4484;48.928;10.066;2023-06-26T04:08:38;3.33;;;3.03;;
8895;SDS011;4484;48.928;10.066;2023-06-26T04:11:05;4.77;;;3.80;;
8895;SDS011;4484;48.928;10.066;2023-06-26T04:13:31;5.10;;;3.80;;
8895;SDS011;4484;48.928;10.066;2023-06-26T04:15:58;4.13;;;3.70;;
8895;SDS011;4484;48.928;10.066;2023-06-26T04:18:25;6.03;;;4.70;;
8895;SDS011;4484;48.928;10.066;2023-06-26T04:21:06;5.87;;;4.43;;
8895;SDS011;4484;48.928;10.066;2023-06-26T04:23:34;5.87;;;4.70;;
8895;SDS011;4484;48.928;10.066;2023-06-26T04:26:01;5.03;;;3.90;;
8895;SDS011;4484;48.928;10.066;2023-06-26T04:28:31;5.07;;;4.17;;
8895;SDS011;4484;48.928;10.066;2023-06-26T04:30:59;6.90;;;4.50;;
8895;SDS011;4484;48.928;10.066;2023-06-26T04:33:26;5.43;;;4.07;;
8895;SDS011;4484;48.928;10.066;2023-06-26T04:35:53;4.70;;;3.90;;
8895;SDS011;4484;48.928;10.066;2023-06-26T04:38:20;3.90;;;3.47;;
8895;SDS011;4484;48.928;10.066;2023-06-26T04:40:48;4.53;;;3.93;;
8895;SDS011;4484;48.928;10.066;2023-06-26T04:43:15;4.33;;;3.77;;
8895;SDS011;4484;48.928;10.066;2023-06-26T04:45:42;6.07;;;3.60;;
8895;SDS011;4484;48.928;10.066;2023-06-26T04:48:09;5.20;;;3.87;;
8895;SDS011;4484;48.928;10.066;2023-06-26T04:50:36;5.13;;;4.13;;
8895;SDS011;4484;48.928;10.066;2023-06-26T04:53:04;6.07;;;4.40;;
8895;SDS011;4484;48.928;10.066;2023-06-26T04:55:31;5.80;;;4.33;;
8895;SDS011;4484;48.928;10.066;2023-06-26T04:57:58;6.87;;;4.53;;
8895;SDS011;4484;48.928;10.066;2023-06-26T05:00:25;8.20;;;5.33;;
8895;SDS011;4484;48.928;10.066;2023-06-26T05:02:52;6.17;;;4.90;;
8895;SDS011;4484;48.928;10.066;2023-06-26T05:05:27;6.37;;;5.33;;
8895;SDS011;4484;48.928;10.066;2023-06-26T05:07:55;8.60;;;5.00;;
8895;SDS011;4484;48.928;10.066;2023-06-26T05:10:22;6.03;;;5.03;;
8895;SDS011;4484;48.928;10.066;2023-06-26T05:12:49;7.57;;;4.63;;
8895;SDS011;4484;48.928;10.066;2023-06-26T05:15:16;6.30;;;4.93;;
8895;SDS011;4484;48.928;10.066;2023-06-26T05:17:43;5.53;;;4.90;;
8895;SDS011;4484;48.928;10.066;2023-06-26T05:20:11;6.93;;;5.07;;
8895;SDS011;4484;48.928;10.066;2023-06-26T05:22:40;7.60;;;4.93;;
8895;SDS011;4484;48.928;10.066;2023-06-26T05:25:08;7.60;;;4.93;;
8895;SDS011;4484;48.928;10.066;2023-06-26T05:27:36;6.53;;;4.87;;
8895;SDS011;4484;48.928;10.066;2023-06-26T05:30:03;6.20;;;5.10;;
8895;SDS011;4484;48.928;10.066;2023-06-26T05:32:31;5.93;;;5.00;;
8895;SDS011;4484;48.928;10.066;2023-06-26T05:35:02;8.30;;;4.97;;
8895;SDS011;4484;48.928;10.066;2023-06-26T05:37:31;7.03;;;5.10;;
8895;SDS011;4484;48.928;10.066;2023-06-26T05:39:58;8.03;;;5.17;;
8895;SDS011;4484;48.928;10.066;2023-06-26T05:42:27;6.67;;;5.50;;
8895;SDS011;4484;48.928;10.066;2023-06-26T05:44:54;5.57;;;4.40;;
8895;SDS011;4484;48.928;10.066;2023-06-26T05:47:22;5.93;;;4.83;;
8895;SDS011;4484;48.928;10.066;2023-06-26T05:49:50;6.50;;;5.07;;
8895;SDS011;4484;48.928;10.066;2023-06-26T05:52:17;6.47;;;5.23;;
8895;SDS011;4484;48.928;10.066;2023-06-26T05:54:44;6.30;;;4.77;;
8895;SDS011;4484;48.928;10.066;2023-06-26T05:57:11;7.20;;;5.30;;
8895;SDS011;4484;48.928;10.066;2023-06-26T05:59:40;6.17;;;5.03;;
8895;SDS011;4484;48.928;10.066;2023-06-26T06:02:09;5.93;;;5.07;;
8895;SDS011;4484;48.928;10.066;2023-06-26T06:04:36;10.63;;;5.77;;
8895;SDS011;4484;48.928;10.066;2023-06-26T06:07:04;7.17;;;4.93;;
8895;SDS011;4484;48.928;10.066;2023-06-26T06:09:31;6.50;;;5.07;;
8895;SDS011;4484;48.928;10.066;2023-06-26T06:11:58;7.33;;;5.33;;
8895;SDS011;4484;48.928;10.066;2023-06-26T06:14:26;6.97;;;5.47;;
8895;SDS011;4484;48.928;10.066;2023-06-26T06:16:53;6.90;;;5.30;;
8895;SDS011;4484;48.928;10.066;2023-06-26T06:19:21;7.10;;;4.97;;
8895;SDS011;4484;48.928;10.066;2023-06-26T06:21:48;6.90;;;5.80;;
8895;SDS011;4484;48.928;10.066;2023-06-26T06:24:15;7.20;;;5.60;;
8895;SDS011;4484;48.928;10.066;2023-06-26T06:26:42;5.67;;;5.07;;
8895;SDS011;4484;48.928;10.066;2023-06-26T06:29:09;5.57;;;5.00;;
8895;SDS011;4484;48.928;10.066;2023-06-26T06:31:35;11.13;;;5.97;;
8895;SDS011;4484;48.928;10.066;2023-06-26T06:34:02;5.33;;;4.83;;
8895;SDS011;4484;48.928;10.066;2023-06-26T06:36:29;7.88;;;5.88;;
8895;SDS011;4484;48.928;10.066;2023-06-26T06:38:57;6.30;;;5.47;;
8895;SDS011;4484;48.928;10.066;2023-06-26T06:41:24;6.80;;;5.47;;
8895;SDS011;4484;48.928;10.066;2023-06-26T06:43:51;6.88;;;4.90;;
8895;SDS011;4484;48.928;10.066;2023-06-26T06:46:19;6.97;;;5.28;;
8895;SDS011;4484;48.928;10.066;2023-06-26T06:48:46;6.18;;;5.45;;
8895;SDS011;4484;48.928;10.066;2023-06-26T06:51:13;5.45;;;4.93;;
8895;SDS011;4484;48.928;10.066;2023-06-26T06:53:40;6.60;;;4.90;;
8895;SDS011;4484;48.928;10.066;2023-06-26T06:56:07;5.20;;;4.70;;
8895;SDS011;4484;48.928;10.066;2023-06-26T06:58:34;6.63;;;5.35;;
8895;SDS011;4484;48.928;10.066;2023-06-26T07:01:02;6.03;;;5.43;;
8895;SDS011;4484;48.928;10.066;2023-06-26T07:03:30;6.72;;;5.18;;
8895;SDS011;4484;48.928;10.066;2023-06-26T07:05:58;6.15;;;5.55;;
8895;SDS011;4484;48.928;10.066;2023-06-26T07:08:24;5.50;;;4.88;;
8895;SDS011;4484;48.928;10.066;2023-06-26T07:10:51;6.30;;;5.35;;
8895;SDS011;4484;48.928;10.066;2023-06-26T07:13:18;6.13;;;5.18;;
8895;SDS011;4484;48.928;10.066;2023-06-26T07:15:45;6.78;;;5.47;;
8895;SDS011;4484;48.928;10.066;2023-06-26T07:18:14;6.22;;;5.57;;
8895;SDS011;4484;48.928;10.066;2023-06-26T07:20:41;6.13;;;5.47;;
8895;SDS011;4484;48.928;10.066;2023-06-26T07:23:08;5.10;;;4.60;;
8895;SDS011;4484;48.928;10.066;2023-06-26T07:25:35;5.53;;;4.93;;
8895;SDS011;4484;48.928;10.066;2023-06-26T07:28:02;5.70;;;5.10;;
8895;SDS011;4484;48.928;10.066;2023-06-26T07:30:29;5.53;;;4.93;;
8895;SDS011;4484;48.928;10.066;2023-06-26T07:32:56;5.38;;;4.88;;
8895;SDS011;4484;48.928;10.066;2023-06-26T07:35:23;5.30;;;4.80;;
8895;SDS011;4484;48.928;10.066;2023-06-26T07:37:51;7.05;;;5.13;;
8895;SDS011;4484;48.928;10.066;2023-06-26T07:40:18;7.43;;;5.40;;
8895;SDS011;4484;48.928;10.066;2023-06-26T07:42:45;5.30;;;4.80;;
8895;SDS011;4484;48.928;10.066;2023-06-26T07:45:12;6.78;;;5.15;;
8895;SDS011;4484;48.928;10.066;2023-06-26T07:47:39;6.53;;;5.50;;
8895;SDS011;4484;48.928;10.066;2023-06-26T07:50:07;5.75;;;5.25;;
8895;SDS011;4484;48.928;10.066;2023-06-26T07:52:34;5.35;;;4.82;;
8895;SDS011;4484;48.928;10.066;2023-06-26T07:55:01;5.80;;;5.20;;
8895;SDS011;4484;48.928;10.066;2023-06-26T07:57:29;5.75;;;4.65;;
8895;SDS011;4484;48.928;10.066;2023-06-26T07:59:58;7.93;;;5.43;;
8895;SDS011;4484;48.928;10.066;2023-06-26T08:02:25;7.22;;;5.45;;
8895;SDS011;4484;48.928;10.066;2023-06-26T08:04:52;6.03;;;5.32;;
8895;SDS011;4484;48.928;10.066;2023-06-26T08:07:19;5.78;;;5.20;;
8895;SDS011;4484;48.928;10.066;2023-06-26T08:09:46;6.03;;;5.43;;
8895;SDS011;4484;48.928;10.066;2023-06-26T08:12:13;5.72;;;5.22;;
8895;SDS011;4484;48.928;10.066;2023-06-26T08:14:40;5.97;;;5.38;;
8895;SDS011;4484;48.928;10.066;2023-06-26T08:17:07;5.68;;;5.07;;
8895;SDS011;4484;48.928;10.066;2023-06-26T08:19:34;5.55;;;5.05;;
8895;SDS011;4484;48.928;10.066;2023-06-26T08:22:01;5.70;;;5.20;;
8895;SDS011;4484;48.928;10.066;2023-06-26T08:24:28;4.80;;;4.40;;
8895;SDS011;4484;48.928;10.066;2023-06-26T08:26:55;5.60;;;5.10;;
8895;SDS011;4484;48.928;10.066;2023-06-26T08:29:22;6.03;;;5.28;;
8895;SDS011;4484;48.928;10.066;2023-06-26T08:31:49;7.65;;;5.15;;
8895;SDS011;4484;48.928;10.066;2023-06-26T08:34:16;5.93;;;5.32;;
8895;SDS011;4484;48.928;10.066;2023-06-26T08:36:43;5.72;;;4.70;;
8895;SDS011;4484;48.928;10.066;2023-06-26T08:39:11;5.45;;;4.45;;
8895;SDS011;4484;48.928;10.066;2023-06-26T08:41:38;4.95;;;4.50;;
8895;SDS011;4484;48.928;10.066;2023-06-26T08:44:05;6.03;;;5.05;;
8895;SDS011;4484;48.928;10.066;2023-06-26T08:46:32;6.18;;;4.97;;
8895;SDS011;4484;48.928;10.066;2023-06-26T08:49:01;5.70;;;5.20;;
8895;SDS011;4484;48.928;10.066;2023-06-26T08:51:34;7.05;;;5.40;;
8895;SDS011;4484;48.928;10.066;2023-06-26T08:54:05;5.90;;;5.30;;
8895;SDS011;4484;48.928;10.066;2023-06-26T08:56:36;6.35;;;5.13;;
8895;SDS011;4484;48.928;10.066;2023-06-26T08:59:06;5.57;;;5.10;;
8895;SDS011;4484;48.928;10.066;2023-06-26T09:01:36;7.88;;;5.15;;
8895;SDS011;4484;48.928;10.066;2023-06-26T09:04:04;5.53;;;5.03;;
8895;SDS011;4484;48.928;10.066;2023-06-26T09:06:31;5.22;;;4.72;;
8895;SDS011;4484;48.928;10.066;2023-06-26T09:08:59;5.25;;;4.80;;
8895;SDS011;4484;48.928;10.066;2023-06-26T09:11:26;6.22;;;4.60;;
8895;SDS011;4484;48.928;10.066;2023-06-26T09:13:53;5.47;;;4.97;;
8895;SDS011;4484;48.928;10.066;2023-06-26T09:16:25;5.18;;;4.68;;
8895;SDS011;4484;48.928;10.066;2023-06-26T09:18:56;5.40;;;4.25;;
8895;SDS011;4484;48.928;10.066;2023-06-26T09:21:23;5.05;;;4.55;;
8895;SDS011;4484;48.928;10.066;2023-06-26T09:23:51;5.18;;;4.78;;
8895;SDS011;4484;48.928;10.066;2023-06-26T09:26:21;4.97;;;4.53;;
8895;SDS011;4484;48.928;10.066;2023-06-26T09:28:48;5.18;;;4.65;;
8895;SDS011;4484;48.928;10.066;2023-06-26T09:31:16;6.25;;;5.03;;
8895;SDS011;4484;48.928;10.066;2023-06-26T09:34:04;4.45;;;3.90;;
8895;SDS011;4484;48.928;10.066;2023-06-26T09:36:32;4.50;;;4.13;;
8895;SDS011;4484;48.928;10.066;2023-06-26T09:39:04;4.30;;;3.90;;
8895;SDS011;4484;48.928;10.066;2023-06-26T09:41:35;4.57;;;4.20;;
8895;SDS011;4484;48.928;10.066;2023-06-26T09:44:02;4.90;;;4.50;;
8895;SDS011;4484;48.928;10.066;2023-06-26T09:46:30;4.07;;;3.78;;
8895;SDS011;4484;48.928;10.066;2023-06-26T09:49:05;4.82;;;4.10;;
8895;SDS011;4484;48.928;10.066;2023-06-26T09:51:33;5.15;;;3.90;;
8895;SDS011;4484;48.928;10.066;2023-06-26T09:54:02;5.68;;;3.95;;
8895;SDS011;4484;48.928;10.066;2023-06-26T09:56:30;4.00;;;3.70;;
8895;SDS011;4484;48.928;10.066;2023-06-26T09:58:58;8.13;;;4.22;;
8895;SDS011;4484;48.928;10.066;2023-06-26T10:01:30;4.60;;;4.20;;
8895;SDS011;4484;48.928;10.066;2023-06-26T10:03:58;4.45;;;4.07;;
8895;SDS011;4484;48.928;10.066;2023-06-26T10:06:33;5.10;;;4.60;;
8895;SDS011;4484;48.928;10.066;2023-06-26T10:09:03;4.22;;;3.80;;
8895;SDS011;4484;48.928;10.066;2023-06-26T10:11:40;4.90;;;4.40;;
8895;SDS011;4484;48.928;10.066;2023-06-26T10:14:12;4.32;;;3.92;;
8895;SDS011;4484;48.928;10.066;2023-06-26T10:16:44;4.15;;;3.75;;
8895;SDS011;4484;48.928;10.066;2023-06-26T10:19:13;5.13;;;4.28;;
8895;SDS011;4484;48.928;10.066;2023-06-26T10:21:42;5.50;;;4.03;;
8895;SDS011;4484;48.928;10.066;2023-06-26T10:24:09;4.43;;;4.00;;
8895;SDS011;4484;48.928;10.066;2023-06-26T10:26:42;4.28;;;3.88;;
8895;SDS011;4484;48.928;10.066;2023-06-26T10:29:11;3.90;;;3.60;;
8895;SDS011;4484;48.928;10.066;2023-06-26T10:31:42;4.65;;;3.25;;
8895;SDS011;4484;48.928;10.066;2023-06-26T10:34:12;6.25;;;3.65;;
8895;SDS011;4484;48.928;10.066;2023-06-26T10:36:39;3.50;;;3.20;;
8895;SDS011;4484;48.928;10.066;2023-06-26T10:39:07;4.38;;;3.97;;
8895;SDS011;4484;48.928;10.066;2023-06-26T10:41:37;3.88;;;3.58;;
8895;SDS011;4484;48.928;10.066;2023-06-26T10:44:28;4.50;;;4.10;;
8895;SDS011;4484;48.928;10.066;2023-06-26T10:47:08;4.25;;;3.90;;
8895;SDS011;4484;48.928;10.066;2023-06-26T10:49:36;5.88;;;4.63;;
8895;SDS011;4484;48.928;10.066;2023-06-26T10:52:06;5.47;;;4.20;;
8895;SDS011;4484;48.928;10.066;2023-06-26T10:54:33;4.45;;;4.05;;
8895;SDS011;4484;48.928;10.066;2023-06-26T10:57:01;4.75;;;4.30;;
8895;SDS011;4484;48.928;10.066;2023-06-26T10:59:30;5.00;;;4.60;;
8895;SDS011;4484;48.928;10.066;2023-06-26T11:02:01;5.85;;;4.57;;
8895;SDS011;4484;48.928;10.066;2023-06-26T11:04:39;6.90;;;4.65;;
8895;SDS011;4484;48.928;10.066;2023-06-26T11:07:22;4.70;;;4.30;;
8895;SDS011;4484;48.928;10.066;2023-06-26T11:09:57;5.03;;;4.53;;
8895;SDS011;4484;48.928;10.066;2023-06-26T11:15:07;4.65;;;4.25;;
8895;SDS011;4484;48.928;10.066;2023-06-26T11:17:41;6.45;;;4.32;;
8895;SDS011;4484;48.928;10.066;2023-06-26T11:20:13;5.47;;;4.97;;
8895;SDS011;4484;48.928;10.066;2023-06-26T11:22:42;6.03;;;4.57;;
8895;SDS011;4484;48.928;10.066;2023-06-26T11:25:10;5.10;;;4.70;;
8895;SDS011;4484;48.928;10.066;2023-06-26T11:30:04;6.35;;;4.93;;
8895;SDS011;4484;48.928;10.066;2023-06-26T11:32:32;4.68;;;4.28;;
8895;SDS011;4484;48.928;10.066;2023-06-26T11:34:59;6.43;;;4.43;;
8895;SDS011;4484;48.928;10.066;2023-06-26T11:37:26;4.45;;;4.13;;
8895;SDS011;4484;48.928;10.066;2023-06-26T11:39:53;4.90;;;4.50;;
8895;SDS011;4484;48.928;10.066;2023-06-26T11:42:20;7.32;;;4.72;;
8895;SDS011;4484;48.928;10.066;2023-06-26T11:44:47;5.57;;;4.32;;
8895;SDS011;4484;48.928;10.066;2023-06-26T11:47:15;5.43;;;4.93;;
8895;SDS011;4484;48.928;10.066;2023-06-26T11:49:46;5.32;;;4.80;;
8895;SDS011;4484;48.928;10.066;2023-06-26T11:52:15;5.65;;;4.97;;
8895;SDS011;4484;48.928;10.066;2023-06-26T11:54:43;5.60;;;5.10;;
8895;SDS011;4484;48.928;10.066;2023-06-26T11:57:13;5.60;;;4.60;;
8895;SDS011;4484;48.928;10.066;2023-06-26T11:59:41;6.53;;;4.80;;
8895;SDS011;4484;48.928;10.066;2023-06-26T12:02:09;6.65;;;4.80;;
8895;SDS011;4484;48.928;10.066;2023-06-26T12:04:37;6.38;;;4.60;;
8895;SDS011;4484;48.928;10.066;2023-06-26T12:07:07;5.10;;;4.70;;
8895;SDS011;4484;48.928;10.066;2023-06-26T12:09:39;4.80;;;4.40;;
8895;SDS011;4484;48.928;10.066;2023-06-26T12:12:12;5.57;;;5.07;;
8895;SDS011;4484;48.928;10.066;2023-06-26T12:14:42;5.38;;;4.97;;
8895;SDS011;4484;48.928;10.066;2023-06-26T12:17:11;6.65;;;4.80;;
8895;SDS011;4484;48.928;10.066;2023-06-26T12:19:43;4.95;;;4.47;;
8895;SDS011;4484;48.928;10.066;2023-06-26T12:22:14;5.40;;;4.38;;
8895;SDS011;4484;48.928;10.066;2023-06-26T12:24:42;5.43;;;4.93;;
8895;SDS011;4484;48.928;10.066;2023-06-26T12:27:10;5.22;;;4.72;;
8895;SDS011;4484;48.928;10.066;2023-06-26T12:29:39;5.35;;;4.70;;
8895;SDS011;4484;48.928;10.066;2023-06-26T12:32:08;6.85;;;4.63;;
8895;SDS011;4484;48.928;10.066;2023-06-26T12:34:37;4.88;;;4.47;;
8895;SDS011;4484;48.928;10.066;2023-06-26T12:37:05;5.53;;;5.03;;
8895;SDS011;4484;48.928;10.066;2023-06-26T12:42:21;5.57;;;5.07;;
8895;SDS011;4484;48.928;10.066;2023-06-26T12:44:53;5.80;;;5.18;;
8895;SDS011;4484;48.928;10.066;2023-06-26T12:47:28;5.78;;;5.25;;
8895;SDS011;4484;48.928;10.066;2023-06-26T12:49:57;6.68;;;5.43;;
8895;SDS011;4484;48.928;10.066;2023-06-26T12:52:24;6.43;;;5.18;;
8895;SDS011;4484;48.928;10.066;2023-06-26T12:54:51;6.70;;;5.07;;
8895;SDS011;4484;48.928;10.066;2023-06-26T12:57:19;5.88;;;5.38;;
8895;SDS011;4484;48.928;10.066;2023-06-26T12:59:46;6.28;;;5.68;;
8895;SDS011;4484;48.928;10.066;2023-06-26T13:02:13;6.25;;;4.72;;
8895;SDS011;4484;48.928;10.066;2023-06-26T13:04:41;8.30;;;6.07;;
8895;SDS011;4484;48.928;10.066;2023-06-26T13:07:08;6.10;;;5.60;;
8895;SDS011;4484;48.928;10.066;2023-06-26T13:09:35;10.88;;;5.80;;
8895;SDS011;4484;48.928;10.066;2023-06-26T13:12:03;7.07;;;5.43;;
8895;SDS011;4484;48.928;10.066;2023-06-26T13:14:32;6.35;;;5.38;;
8895;SDS011;4484;48.928;10.066;2023-06-26T13:17:00;5.35;;;4.88;;
8895;SDS011;4484;48.928;10.066;2023-06-26T13:19:28;6.60;;;5.82;;
8895;SDS011;4484;48.928;10.066;2023-06-26T13:21:55;6.85;;;5.50;;
8895;SDS011;4484;48.928;10.066;2023-06-26T13:24:23;6.28;;;5.68;;
8895;SDS011;4484;48.928;10.066;2023-06-26T13:26:50;5.70;;;5.20;;
8895;SDS011;4484;48.928;10.066;2023-06-26T13:29:17;5.97;;;5.47;;
8895;SDS011;4484;48.928;10.066;2023-06-26T13:31:43;5.80;;;5.20;;
8895;SDS011;4484;48.928;10.066;2023-06-26T13:34:19;5.95;;;5.28;;
8895;SDS011;4484;48.928;10.066;2023-06-26T13:36:49;7.53;;;5.35;;
8895;SDS011;4484;48.928;10.066;2023-06-26T13:39:16;6.95;;;4.85;;
8895;SDS011;4484;48.928;10.066;2023-06-26T13:41:44;5.15;;;4.75;;
8895;SDS011;4484;48.928;10.066;2023-06-26T13:44:11;6.20;;;5.60;;
8895;SDS011;4484;48.928;10.066;2023-06-26T13:46:57;6.68;;;5.78;;
8895;SDS011;4484;48.928;10.066;2023-06-26T13:49:24;5.70;;;5.20;;
8895;SDS011;4484;48.928;10.066;2023-06-26T13:51:50;8.63;;;5.32;;
8895;SDS011;4484;48.928;10.066;2023-06-26T13:54:17;8.10;;;5.18;;
8895;SDS011;4484;48.928;10.066;2023-06-26T13:56:44;8.93;;;5.72;;
8895;SDS011;4484;48.928;10.066;2023-06-26T13:59:11;11.02;;;5.88;;
8895;SDS011;4484;48.928;10.066;2023-06-26T14:01:39;6.47;;;5.72;;
8895;SDS011;4484;48.928;10.066;2023-06-26T14:04:09;8.38;;;5.60;;
8895;SDS011;4484;48.928;10.066;2023-06-26T14:06:36;8.05;;;5.95;;
8895;SDS011;4484;48.928;10.066;2023-06-26T14:09:03;7.43;;;5.43;;
8895;SDS011;4484;48.928;10.066;2023-06-26T14:11:30;8.13;;;5.75;;
8895;SDS011;4484;48.928;10.066;2023-06-26T14:13:59;6.60;;;5.90;;
8895;SDS011;4484;48.928;10.066;2023-06-26T14:16:26;9.75;;;5.65;;
8895;SDS011;4484;48.928;10.066;2023-06-26T14:18:55;6.78;;;5.95;;
8895;SDS011;4484;48.928;10.066;2023-06-26T14:21:22;7.68;;;5.53;;
8895;SDS011;4484;48.928;10.066;2023-06-26T14:23:49;6.85;;;4.95;;
8895;SDS011;4484;48.928;10.066;2023-06-26T14:26:16;7.47;;;5.65;;
8895;SDS011;4484;48.928;10.066;2023-06-26T14:28:43;6.32;;;5.70;;
8895;SDS011;4484;48.928;10.066;2023-06-26T14:31:11;6.53;;;5.53;;
8895;SDS011;4484;48.928;10.066;2023-06-26T14:33:39;15.73;;;5.53;;
8895;SDS011;4484;48.928;10.066;2023-06-26T14:36:06;5.43;;;4.93;;
8895;SDS011;4484;48.928;10.066;2023-06-26T14:38:33;6.57;;;5.95;;
8895;SDS011;4484;48.928;10.066;2023-06-26T14:40:59;6.07;;;5.18;;
8895;SDS011;4484;48.928;10.066;2023-06-26T14:43:27;9.50;;;5.35;;
8895;SDS011;4484;48.928;10.066;2023-06-26T14:45:54;6.22;;;5.63;;
8895;SDS011;4484;48.928;10.066;2023-06-26T14:48:22;6.45;;;5.60;;
8895;SDS011;4484;48.928;10.066;2023-06-26T14:50:49;7.38;;;5.85;;
8895;SDS011;4484;48.928;10.066;2023-06-26T14:53:16;6.40;;;5.30;;
8895;SDS011;4484;48.928;10.066;2023-06-26T14:55:43;7.93;;;5.20;;
8895;SDS011;4484;48.928;10.066;2023-06-26T14:58:10;5.53;;;4.78;;
8895;SDS011;4484;48.928;10.066;2023-06-26T15:00:37;6.28;;;4.80;;
8895;SDS011;4484;48.928;10.066;2023-06-26T15:03:05;5.78;;;5.10;;
8895;SDS011;4484;48.928;10.066;2023-06-26T15:05:32;8.07;;;4.82;;
8895;SDS011;4484;48.928;10.066;2023-06-26T15:07:59;10.50;;;4.53;;
8895;SDS011;4484;48.928;10.066;2023-06-26T15:10:26;5.88;;;4.00;;
8895;SDS011;4484;48.928;10.066;2023-06-26T15:12:54;4.80;;;4.10;;
8895;SDS011;4484;48.928;10.066;2023-06-26T15:15:21;6.70;;;4.03;;
8895;SDS011;4484;48.928;10.066;2023-06-26T15:17:48;4.93;;;3.13;;